sensor_id;sensor_type;location;lat;lon;timestamp;temperature;humidity
1476;DHT22;730;48.870;12.542;2022-12-01T00:00:40;3.70;1.00
1476;DHT22;730;48.870;12.542;2022-12-01T00:03:06;3.70;1.00
1476;DHT22;730;48.870;12.542;2022-12-01T00:05:34;3.70;1.00
1476;DHT22;730;48.870;12.542;2022-12-01T00:08:01;3.60;1.00
1476;DHT22;730;48.870;12.542;2022-12-01T00:10:27;3.60;1.00
1476;DHT22;730;48.870;12.542;2022-12-01T00:12:59;3.60;1.00
1476;DHT22;730;48.870;12.542;2022-12-01T00:15:27;3.60;1.00
1476;DHT22;730;48.870;12.542;2022-12-01T00:17:54;3.50;1.00
1476;DHT22;730;48.870;12.542;2022-12-01T00:20:20;3.50;1.00
1476;DHT22;730;48.870;12.542;2022-12-01T00:22:47;3.50;1.00
1476;DHT22;730;48.870;12.542;2022-12-01T00:25:15;3.50;1.40
1476;DHT22;730;48.870;12.542;2022-12-01T00:27:42;3.50;1.50
1476;DHT22;730;48.870;12.542;2022-12-01T00:30:10;3.50;1.50
1476;DHT22;730;48.870;12.542;2022-12-01T00:32:36;3.60;1.60
1476;DHT22;730;48.870;12.542;2022-12-01T00:35:03;3.50;2.10
1476;DHT22;730;48.870;12.542;2022-12-01T00:37:31;3.50;2.20
1476;DHT22;730;48.870;12.542;2022-12-01T00:39:58;3.50;2.40
1476;DHT22;730;48.870;12.542;2022-12-01T00:42:24;3.50;2.40
1476;DHT22;730;48.870;12.542;2022-12-01T00:44:50;3.60;2.30
1476;DHT22;730;48.870;12.542;2022-12-01T00:47:17;3.60;2.20
1476;DHT22;730;48.870;12.542;2022-12-01T00:49:43;3.60;2.00
1476;DHT22;730;48.870;12.542;2022-12-01T00:52:11;3.60;2.20
1476;DHT22;730;48.870;12.542;2022-12-01T00:54:37;3.60;2.40
1476;DHT22;730;48.870;12.542;2022-12-01T00:57:08;3.60;2.20
1476;DHT22;730;48.870;12.542;2022-12-01T00:59:34;3.60;2.00
1476;DHT22;730;48.870;12.542;2022-12-01T01:02:04;3.60;2.00
1476;DHT22;730;48.870;12.542;2022-12-01T01:04:33;3.60;2.20
1476;DHT22;730;48.870;12.542;2022-12-01T01:06:59;3.50;2.50
1476;DHT22;730;48.870;12.542;2022-12-01T01:09:25;3.50;2.80
1476;DHT22;730;48.870;12.542;2022-12-01T01:11:52;3.40;2.80
1476;DHT22;730;48.870;12.542;2022-12-01T01:14:19;3.50;2.80
1476;DHT22;730;48.870;12.542;2022-12-01T01:16:46;3.50;2.50
1476;DHT22;730;48.870;12.542;2022-12-01T01:19:12;3.50;2.30
1476;DHT22;730;48.870;12.542;2022-12-01T01:21:38;3.50;2.00
1476;DHT22;730;48.870;12.542;2022-12-01T01:24:05;3.40;1.60
1476;DHT22;730;48.870;12.542;2022-12-01T01:26:31;3.40;1.50
1476;DHT22;730;48.870;12.542;2022-12-01T01:29:00;3.40;1.50
1476;DHT22;730;48.870;12.542;2022-12-01T01:31:29;3.30;1.50
1476;DHT22;730;48.870;12.542;2022-12-01T01:33:56;3.30;1.60
1476;DHT22;730;48.870;12.542;2022-12-01T01:36:23;3.20;2.20
1476;DHT22;730;48.870;12.542;2022-12-01T01:38:50;3.20;2.30
1476;DHT22;730;48.870;12.542;2022-12-01T01:41:19;3.20;1.80
1476;DHT22;730;48.870;12.542;2022-12-01T01:46:54;3.10;2.10
1476;DHT22;730;48.870;12.542;2022-12-01T01:49:13;3.00;2.20
1476;DHT22;730;48.870;12.542;2022-12-01T01:51:41;3.00;2.70
1476;DHT22;730;48.870;12.542;2022-12-01T01:54:21;3.00;3.10
1476;DHT22;730;48.870;12.542;2022-12-01T01:56:49;2.90;2.90
1476;DHT22;730;48.870;12.542;2022-12-01T01:59:23;2.90;2.80
1476;DHT22;730;48.870;12.542;2022-12-01T02:02:02;2.90;2.90
1476;DHT22;730;48.870;12.542;2022-12-01T02:04:33;2.80;3.20
1476;DHT22;730;48.870;12.542;2022-12-01T02:07:00;2.80;3.40
1476;DHT22;730;48.870;12.542;2022-12-01T02:09:26;2.80;3.40
1476;DHT22;730;48.870;12.542;2022-12-01T02:12:14;2.80;3.40
1476;DHT22;730;48.870;12.542;2022-12-01T02:15:07;2.80;3.80
1476;DHT22;730;48.870;12.542;2022-12-01T02:17:43;2.70;3.70
1476;DHT22;730;48.870;12.542;2022-12-01T02:25:55;2.70;4.60
1476;DHT22;730;48.870;12.542;2022-12-01T02:31:16;2.60;5.60
1476;DHT22;730;48.870;12.542;2022-12-01T02:34:02;2.60;5.90
1476;DHT22;730;48.870;12.542;2022-12-01T02:36:34;2.60;5.60
1476;DHT22;730;48.870;12.542;2022-12-01T02:39:29;2.70;5.40
1476;DHT22;730;48.870;12.542;2022-12-01T02:42:11;2.70;5.50
1476;DHT22;730;48.870;12.542;2022-12-01T02:45:01;2.70;5.00
1476;DHT22;730;48.870;12.542;2022-12-01T02:47:28;2.70;4.60
1476;DHT22;730;48.870;12.542;2022-12-01T02:49:57;2.70;4.40
1476;DHT22;730;48.870;12.542;2022-12-01T02:52:23;2.70;4.20
1476;DHT22;730;48.870;12.542;2022-12-01T02:54:52;2.70;3.90
1476;DHT22;730;48.870;12.542;2022-12-01T02:57:19;2.60;4.00
1476;DHT22;730;48.870;12.542;2022-12-01T02:59:48;2.60;4.10
1476;DHT22;730;48.870;12.542;2022-12-01T03:08:05;2.50;4.40
1476;DHT22;730;48.870;12.542;2022-12-01T03:10:54;2.50;4.20
1476;DHT22;730;48.870;12.542;2022-12-01T03:13:41;2.50;3.90
1476;DHT22;730;48.870;12.542;2022-12-01T03:16:28;2.50;4.60
1476;DHT22;730;48.870;12.542;2022-12-01T03:24:26;2.40;5.10
1476;DHT22;730;48.870;12.542;2022-12-01T03:26:56;2.40;4.90
1476;DHT22;730;48.870;12.542;2022-12-01T03:31:59;2.40;4.30
1476;DHT22;730;48.870;12.542;2022-12-01T03:34:49;2.40;4.30
1476;DHT22;730;48.870;12.542;2022-12-01T03:37:39;2.40;4.10
1476;DHT22;730;48.870;12.542;2022-12-01T03:40:11;2.40;4.00
1476;DHT22;730;48.870;12.542;2022-12-01T03:42:57;2.30;4.10
1476;DHT22;730;48.870;12.542;2022-12-01T03:46:01;2.30;4.20
1476;DHT22;730;48.870;12.542;2022-12-01T03:48:29;2.30;4.20
1476;DHT22;730;48.870;12.542;2022-12-01T03:56:42;2.20;4.60
1476;DHT22;730;48.870;12.542;2022-12-01T03:59:11;2.10;4.80
1476;DHT22;730;48.870;12.542;2022-12-01T04:01:38;2.10;4.90
1476;DHT22;730;48.870;12.542;2022-12-01T04:04:07;2.10;4.80
1476;DHT22;730;48.870;12.542;2022-12-01T04:06:34;2.10;4.80
1476;DHT22;730;48.870;12.542;2022-12-01T04:09:00;2.00;5.20
1476;DHT22;730;48.870;12.542;2022-12-01T04:11:27;2.10;5.70
1476;DHT22;730;48.870;12.542;2022-12-01T04:14:12;2.10;5.90
1476;DHT22;730;48.870;12.542;2022-12-01T04:16:38;2.00;5.90
1476;DHT22;730;48.870;12.542;2022-12-01T04:19:04;2.00;6.00
1476;DHT22;730;48.870;12.542;2022-12-01T04:21:30;2.00;6.40
1476;DHT22;730;48.870;12.542;2022-12-01T04:23:56;2.00;6.50
1476;DHT22;730;48.870;12.542;2022-12-01T04:26:29;2.00;6.70
1476;DHT22;730;48.870;12.542;2022-12-01T04:28:58;1.90;6.90
1476;DHT22;730;48.870;12.542;2022-12-01T04:31:24;1.90;7.20
1476;DHT22;730;48.870;12.542;2022-12-01T04:33:50;1.90;7.50
1476;DHT22;730;48.870;12.542;2022-12-01T04:36:16;1.90;7.70
1476;DHT22;730;48.870;12.542;2022-12-01T04:38:42;1.90;7.80
1476;DHT22;730;48.870;12.542;2022-12-01T04:41:12;1.90;7.60
1476;DHT22;730;48.870;12.542;2022-12-01T04:43:39;1.90;7.30
1476;DHT22;730;48.870;12.542;2022-12-01T04:46:06;1.90;7.20
1476;DHT22;730;48.870;12.542;2022-12-01T04:48:37;1.90;7.30
1476;DHT22;730;48.870;12.542;2022-12-01T04:51:07;1.90;7.30
1476;DHT22;730;48.870;12.542;2022-12-01T04:53:34;1.90;7.10
1476;DHT22;730;48.870;12.542;2022-12-01T04:56:01;1.80;7.30
1476;DHT22;730;48.870;12.542;2022-12-01T04:58:29;1.80;7.30
1476;DHT22;730;48.870;12.542;2022-12-01T05:01:01;1.90;7.20
1476;DHT22;730;48.870;12.542;2022-12-01T05:03:29;1.80;7.30
1476;DHT22;730;48.870;12.542;2022-12-01T05:06:03;1.90;7.40
1476;DHT22;730;48.870;12.542;2022-12-01T05:08:29;1.80;7.50
1476;DHT22;730;48.870;12.542;2022-12-01T05:10:55;1.80;7.40
1476;DHT22;730;48.870;12.542;2022-12-01T05:13:22;1.80;7.30
1476;DHT22;730;48.870;12.542;2022-12-01T05:15:48;1.80;7.10
1476;DHT22;730;48.870;12.542;2022-12-01T05:18:14;1.80;7.00
1476;DHT22;730;48.870;12.542;2022-12-01T05:20:40;1.80;6.90
1476;DHT22;730;48.870;12.542;2022-12-01T05:23:23;1.80;6.90
1476;DHT22;730;48.870;12.542;2022-12-01T05:25:50;1.80;6.90
1476;DHT22;730;48.870;12.542;2022-12-01T05:28:16;1.80;6.80
1476;DHT22;730;48.870;12.542;2022-12-01T05:30:42;1.80;6.80
1476;DHT22;730;48.870;12.542;2022-12-01T05:33:08;1.80;6.90
1476;DHT22;730;48.870;12.542;2022-12-01T05:35:34;1.80;7.00
1476;DHT22;730;48.870;12.542;2022-12-01T05:38:01;1.80;7.00
1476;DHT22;730;48.870;12.542;2022-12-01T05:40:27;1.80;7.10
1476;DHT22;730;48.870;12.542;2022-12-01T05:42:58;1.80;7.10
1476;DHT22;730;48.870;12.542;2022-12-01T05:45:24;1.80;7.10
1476;DHT22;730;48.870;12.542;2022-12-01T05:47:59;1.80;6.80
1476;DHT22;730;48.870;12.542;2022-12-01T05:50:26;1.80;6.90
1476;DHT22;730;48.870;12.542;2022-12-01T05:52:53;1.80;6.80
1476;DHT22;730;48.870;12.542;2022-12-01T05:55:19;1.80;7.20
1476;DHT22;730;48.870;12.542;2022-12-01T05:57:45;1.80;7.50
1476;DHT22;730;48.870;12.542;2022-12-01T06:00:12;1.90;7.40
1476;DHT22;730;48.870;12.542;2022-12-01T06:02:41;1.90;7.30
1476;DHT22;730;48.870;12.542;2022-12-01T06:05:08;1.90;7.10
1476;DHT22;730;48.870;12.542;2022-12-01T06:07:34;1.90;7.00
1476;DHT22;730;48.870;12.542;2022-12-01T06:10:01;1.90;7.40
1476;DHT22;730;48.870;12.542;2022-12-01T06:12:27;1.90;8.00
1476;DHT22;730;48.870;12.542;2022-12-01T06:14:53;1.90;7.80
1476;DHT22;730;48.870;12.542;2022-12-01T06:17:19;1.90;8.00
1476;DHT22;730;48.870;12.542;2022-12-01T06:19:45;1.80;8.20
1476;DHT22;730;48.870;12.542;2022-12-01T06:22:13;1.80;8.60
1476;DHT22;730;48.870;12.542;2022-12-01T06:24:39;1.80;8.60
1476;DHT22;730;48.870;12.542;2022-12-01T06:27:05;1.80;8.60
1476;DHT22;730;48.870;12.542;2022-12-01T06:29:31;1.80;8.80
1476;DHT22;730;48.870;12.542;2022-12-01T06:31:57;1.80;8.80
1476;DHT22;730;48.870;12.542;2022-12-01T06:34:23;1.80;9.10
1476;DHT22;730;48.870;12.542;2022-12-01T06:36:50;1.80;8.80
1476;DHT22;730;48.870;12.542;2022-12-01T06:39:16;1.80;8.80
1476;DHT22;730;48.870;12.542;2022-12-01T06:41:42;1.80;8.80
1476;DHT22;730;48.870;12.542;2022-12-01T06:44:09;1.80;8.50
1476;DHT22;730;48.870;12.542;2022-12-01T06:46:35;1.80;9.00
1476;DHT22;730;48.870;12.542;2022-12-01T06:49:01;1.80;8.90
1476;DHT22;730;48.870;12.542;2022-12-01T06:51:27;1.80;9.20
1476;DHT22;730;48.870;12.542;2022-12-01T06:53:56;1.90;9.70
1476;DHT22;730;48.870;12.542;2022-12-01T06:56:22;1.90;9.30
1476;DHT22;730;48.870;12.542;2022-12-01T06:58:49;1.90;9.30
1476;DHT22;730;48.870;12.542;2022-12-01T07:01:15;1.90;9.80
1476;DHT22;730;48.870;12.542;2022-12-01T07:03:42;1.90;10.00
1476;DHT22;730;48.870;12.542;2022-12-01T07:06:11;1.90;9.70
1476;DHT22;730;48.870;12.542;2022-12-01T07:08:37;2.00;9.30
1476;DHT22;730;48.870;12.542;2022-12-01T07:11:06;2.10;9.30
1476;DHT22;730;48.870;12.542;2022-12-01T07:13:32;2.00;9.40
1476;DHT22;730;48.870;12.542;2022-12-01T07:15:59;2.00;10.00
1476;DHT22;730;48.870;12.542;2022-12-01T07:18:25;2.00;10.10
1476;DHT22;730;48.870;12.542;2022-12-01T07:20:51;2.10;9.70
1476;DHT22;730;48.870;12.542;2022-12-01T07:23:18;2.10;9.80
1476;DHT22;730;48.870;12.542;2022-12-01T07:25:44;2.10;9.70
1476;DHT22;730;48.870;12.542;2022-12-01T07:28:10;2.10;9.60
1476;DHT22;730;48.870;12.542;2022-12-01T07:30:36;2.20;9.70
1476;DHT22;730;48.870;12.542;2022-12-01T07:33:10;2.20;9.60
1476;DHT22;730;48.870;12.542;2022-12-01T07:35:36;2.20;9.40
1476;DHT22;730;48.870;12.542;2022-12-01T07:38:02;2.20;9.60
1476;DHT22;730;48.870;12.542;2022-12-01T07:40:28;2.30;9.80
1476;DHT22;730;48.870;12.542;2022-12-01T07:42:54;2.30;9.50
1476;DHT22;730;48.870;12.542;2022-12-01T07:45:20;2.40;9.40
1476;DHT22;730;48.870;12.542;2022-12-01T07:47:46;2.40;9.40
1476;DHT22;730;48.870;12.542;2022-12-01T07:50:12;2.40;9.00
1476;DHT22;730;48.870;12.542;2022-12-01T07:52:38;2.50;8.50
1476;DHT22;730;48.870;12.542;2022-12-01T07:55:04;2.50;8.40
1476;DHT22;730;48.870;12.542;2022-12-01T07:57:31;2.50;8.40
1476;DHT22;730;48.870;12.542;2022-12-01T07:59:57;2.50;8.90
1476;DHT22;730;48.870;12.542;2022-12-01T08:02:23;2.50;8.80
1476;DHT22;730;48.870;12.542;2022-12-01T08:04:49;2.60;9.10
1476;DHT22;730;48.870;12.542;2022-12-01T08:07:15;2.60;8.90
1476;DHT22;730;48.870;12.542;2022-12-01T08:09:41;2.70;9.30
1476;DHT22;730;48.870;12.542;2022-12-01T08:12:07;2.80;9.40
1476;DHT22;730;48.870;12.542;2022-12-01T08:14:33;2.90;9.20
1476;DHT22;730;48.870;12.542;2022-12-01T08:17:01;3.00;9.60
1476;DHT22;730;48.870;12.542;2022-12-01T08:19:29;3.10;10.50
1476;DHT22;730;48.870;12.542;2022-12-01T08:21:55;3.20;9.60
1476;DHT22;730;48.870;12.542;2022-12-01T08:24:21;3.20;10.10
1476;DHT22;730;48.870;12.542;2022-12-01T08:26:47;3.40;9.90
1476;DHT22;730;48.870;12.542;2022-12-01T08:29:13;3.40;10.10
1476;DHT22;730;48.870;12.542;2022-12-01T08:31:40;3.50;9.40
1476;DHT22;730;48.870;12.542;2022-12-01T08:34:06;3.60;8.60
1476;DHT22;730;48.870;12.542;2022-12-01T08:36:33;3.60;7.40
1476;DHT22;730;48.870;12.542;2022-12-01T08:39:00;3.70;7.40
1476;DHT22;730;48.870;12.542;2022-12-01T08:41:28;3.70;6.60
1476;DHT22;730;48.870;12.542;2022-12-01T08:43:56;3.60;6.10
1476;DHT22;730;48.870;12.542;2022-12-01T08:46:28;3.60;5.70
1476;DHT22;730;48.870;12.542;2022-12-01T08:48:55;3.50;6.10
1476;DHT22;730;48.870;12.542;2022-12-01T08:51:22;3.70;8.40
1476;DHT22;730;48.870;12.542;2022-12-01T08:53:49;3.80;8.30
1476;DHT22;730;48.870;12.542;2022-12-01T08:56:18;3.90;8.50
1476;DHT22;730;48.870;12.542;2022-12-01T08:58:45;4.10;7.90
1476;DHT22;730;48.870;12.542;2022-12-01T09:01:14;4.20;6.80
1476;DHT22;730;48.870;12.542;2022-12-01T09:03:41;4.30;6.40
1476;DHT22;730;48.870;12.542;2022-12-01T09:06:16;4.50;6.30
1476;DHT22;730;48.870;12.542;2022-12-01T09:08:43;4.60;5.80
1476;DHT22;730;48.870;12.542;2022-12-01T09:11:11;4.80;5.40
1476;DHT22;730;48.870;12.542;2022-12-01T09:13:40;5.00;4.50
1476;DHT22;730;48.870;12.542;2022-12-01T09:16:12;5.10;3.60
1476;DHT22;730;48.870;12.542;2022-12-01T09:18:39;5.20;3.00
1476;DHT22;730;48.870;12.542;2022-12-01T09:21:16;5.40;1.80
1476;DHT22;730;48.870;12.542;2022-12-01T09:23:43;5.50;1.00
1476;DHT22;730;48.870;12.542;2022-12-01T09:26:10;5.60;1.00
1476;DHT22;730;48.870;12.542;2022-12-01T09:28:36;5.60;1.00
1476;DHT22;730;48.870;12.542;2022-12-01T09:31:04;5.60;1.00
1476;DHT22;730;48.870;12.542;2022-12-01T09:33:30;5.70;1.00
1476;DHT22;730;48.870;12.542;2022-12-01T09:36:00;5.70;1.00
1476;DHT22;730;48.870;12.542;2022-12-01T09:38:28;5.70;1.00
1476;DHT22;730;48.870;12.542;2022-12-01T09:40:54;5.70;1.00
1476;DHT22;730;48.870;12.542;2022-12-01T09:52:25;5.80;1.00
1476;DHT22;730;48.870;12.542;2022-12-01T09:54:53;5.80;1.00
1476;DHT22;730;48.870;12.542;2022-12-01T09:57:25;5.80;1.00
1476;DHT22;730;48.870;12.542;2022-12-01T09:59:53;5.90;1.00
1476;DHT22;730;48.870;12.542;2022-12-01T10:03:11;5.90;1.00
1476;DHT22;730;48.870;12.542;2022-12-01T10:05:19;5.80;1.00
1476;DHT22;730;48.870;12.542;2022-12-01T10:12:50;5.80;1.00
1476;DHT22;730;48.870;12.542;2022-12-01T10:15:42;5.70;1.00
1476;DHT22;730;48.870;12.542;2022-12-01T10:26:42;5.80;1.00
1476;DHT22;730;48.870;12.542;2022-12-01T10:32:00;5.80;1.00
1476;DHT22;730;48.870;12.542;2022-12-01T10:34:31;5.80;1.00
1476;DHT22;730;48.870;12.542;2022-12-01T10:36:58;5.70;1.00
1476;DHT22;730;48.870;12.542;2022-12-01T10:39:32;5.70;1.00
1476;DHT22;730;48.870;12.542;2022-12-01T10:42:13;5.70;1.00
1476;DHT22;730;48.870;12.542;2022-12-01T10:44:41;5.70;1.00
1476;DHT22;730;48.870;12.542;2022-12-01T10:47:19;5.70;1.00
1476;DHT22;730;48.870;12.542;2022-12-01T10:49:46;5.70;1.00
1476;DHT22;730;48.870;12.542;2022-12-01T10:52:45;5.60;1.00
1476;DHT22;730;48.870;12.542;2022-12-01T10:57:48;5.70;1.00
1476;DHT22;730;48.870;12.542;2022-12-01T11:00:25;5.70;1.00
1476;DHT22;730;48.870;12.542;2022-12-01T11:02:52;5.70;1.00
1476;DHT22;730;48.870;12.542;2022-12-01T11:05:26;5.60;1.00
1476;DHT22;730;48.870;12.542;2022-12-01T11:07:53;5.70;1.00
1476;DHT22;730;48.870;12.542;2022-12-01T11:10:30;5.70;1.00
1476;DHT22;730;48.870;12.542;2022-12-01T11:13:25;5.60;1.00
1476;DHT22;730;48.870;12.542;2022-12-01T11:15:57;5.70;1.00
1476;DHT22;730;48.870;12.542;2022-12-01T11:21:16;5.70;1.00
1476;DHT22;730;48.870;12.542;2022-12-01T11:23:51;5.80;1.00
1476;DHT22;730;48.870;12.542;2022-12-01T11:31:18;5.90;1.00
1476;DHT22;730;48.870;12.542;2022-12-01T11:33:49;6.00;1.00
1476;DHT22;730;48.870;12.542;2022-12-01T11:36:37;6.10;1.00
1476;DHT22;730;48.870;12.542;2022-12-01T11:39:03;6.30;1.00
1476;DHT22;730;48.870;12.542;2022-12-01T11:41:35;6.40;1.00
1476;DHT22;730;48.870;12.542;2022-12-01T11:44:04;6.50;1.00
1476;DHT22;730;48.870;12.542;2022-12-01T11:46:34;6.60;1.00
1476;DHT22;730;48.870;12.542;2022-12-01T11:49:02;6.70;1.00
1476;DHT22;730;48.870;12.542;2022-12-01T11:51:32;6.80;1.00
1476;DHT22;730;48.870;12.542;2022-12-01T11:54:20;6.90;1.00
1476;DHT22;730;48.870;12.542;2022-12-01T11:56:48;6.90;1.00
1476;DHT22;730;48.870;12.542;2022-12-01T11:59:16;7.00;1.00
1476;DHT22;730;48.870;12.542;2022-12-01T12:18:57;7.10;1.00
1476;DHT22;730;48.870;12.542;2022-12-01T12:24:41;7.10;1.00
1476;DHT22;730;48.870;12.542;2022-12-01T12:38:50;7.10;1.00
1476;DHT22;730;48.870;12.542;2022-12-01T12:52:36;7.00;1.00
1476;DHT22;730;48.870;12.542;2022-12-01T12:55:36;7.00;1.00
1476;DHT22;730;48.870;12.542;2022-12-01T12:58:15;7.00;1.00
1476;DHT22;730;48.870;12.542;2022-12-01T13:00:51;6.90;1.00
1476;DHT22;730;48.870;12.542;2022-12-01T13:06:03;6.90;1.00
1476;DHT22;730;48.870;12.542;2022-12-01T13:08:51;6.90;1.00
1476;DHT22;730;48.870;12.542;2022-12-01T13:11:23;6.90;1.00
1476;DHT22;730;48.870;12.542;2022-12-01T13:14:01;6.90;1.00
1476;DHT22;730;48.870;12.542;2022-12-01T13:16:34;6.90;1.00
1476;DHT22;730;48.870;12.542;2022-12-01T13:19:16;6.90;1.00
1476;DHT22;730;48.870;12.542;2022-12-01T13:21:45;6.90;1.00
1476;DHT22;730;48.870;12.542;2022-12-01T13:24:14;6.90;1.00
1476;DHT22;730;48.870;12.542;2022-12-01T13:26:44;6.90;1.00
1476;DHT22;730;48.870;12.542;2022-12-01T13:29:15;6.90;1.00
1476;DHT22;730;48.870;12.542;2022-12-01T13:31:48;6.90;1.00
1476;DHT22;730;48.870;12.542;2022-12-01T13:34:25;6.90;1.00
1476;DHT22;730;48.870;12.542;2022-12-01T13:36:54;6.80;1.00
1476;DHT22;730;48.870;12.542;2022-12-01T13:39:29;6.80;1.00
1476;DHT22;730;48.870;12.542;2022-12-01T13:42:01;6.80;1.00
1476;DHT22;730;48.870;12.542;2022-12-01T13:44:43;6.80;1.00
1476;DHT22;730;48.870;12.542;2022-12-01T13:49:42;6.70;1.00
1476;DHT22;730;48.870;12.542;2022-12-01T14:00:29;6.60;1.00
1476;DHT22;730;48.870;12.542;2022-12-01T14:08:19;6.50;1.00
1476;DHT22;730;48.870;12.542;2022-12-01T14:11:01;6.50;1.00
1476;DHT22;730;48.870;12.542;2022-12-01T14:13:30;6.50;1.00
1476;DHT22;730;48.870;12.542;2022-12-01T14:15:58;6.50;1.00
1476;DHT22;730;48.870;12.542;2022-12-01T14:21:01;6.50;1.00
1476;DHT22;730;48.870;12.542;2022-12-01T14:23:32;6.50;1.00
1476;DHT22;730;48.870;12.542;2022-12-01T14:26:17;6.50;1.00
1476;DHT22;730;48.870;12.542;2022-12-01T14:33:58;6.50;1.00
1476;DHT22;730;48.870;12.542;2022-12-01T14:36:38;6.50;1.00
1476;DHT22;730;48.870;12.542;2022-12-01T14:41:49;6.50;1.00
1476;DHT22;730;48.870;12.542;2022-12-01T14:44:28;6.40;1.00
1476;DHT22;730;48.870;12.542;2022-12-01T14:47:04;6.40;1.00
1476;DHT22;730;48.870;12.542;2022-12-01T14:49:48;6.40;1.00
1476;DHT22;730;48.870;12.542;2022-12-01T14:54:59;6.40;1.00
1476;DHT22;730;48.870;12.542;2022-12-01T14:57:31;6.40;1.00
1476;DHT22;730;48.870;12.542;2022-12-01T15:00:10;6.40;1.00
1476;DHT22;730;48.870;12.542;2022-12-01T15:02:59;6.40;1.00
1476;DHT22;730;48.870;12.542;2022-12-01T15:05:30;6.40;1.00
1476;DHT22;730;48.870;12.542;2022-12-01T15:07:59;6.30;1.00
1476;DHT22;730;48.870;12.542;2022-12-01T15:10:32;6.30;1.00
1476;DHT22;730;48.870;12.542;2022-12-01T15:13:39;6.30;1.00
1476;DHT22;730;48.870;12.542;2022-12-01T15:16:14;6.20;1.00
1476;DHT22;730;48.870;12.542;2022-12-01T15:18:40;6.30;1.00
1476;DHT22;730;48.870;12.542;2022-12-01T15:21:18;6.20;1.00
1476;DHT22;730;48.870;12.542;2022-12-01T15:23:56;6.30;1.00
1476;DHT22;730;48.870;12.542;2022-12-01T15:26:34;6.30;1.00
1476;DHT22;730;48.870;12.542;2022-12-01T15:29:23;6.30;1.00
1476;DHT22;730;48.870;12.542;2022-12-01T15:32:15;6.30;1.00
1476;DHT22;730;48.870;12.542;2022-12-01T15:34:45;6.30;1.00
1476;DHT22;730;48.870;12.542;2022-12-01T15:37:20;6.30;1.00
1476;DHT22;730;48.870;12.542;2022-12-01T15:39:58;6.30;1.00
1476;DHT22;730;48.870;12.542;2022-12-01T15:42:31;6.30;1.00
1476;DHT22;730;48.870;12.542;2022-12-01T15:45:11;6.30;1.00
1476;DHT22;730;48.870;12.542;2022-12-01T15:50:32;6.30;1.00
1476;DHT22;730;48.870;12.542;2022-12-01T15:53:13;6.30;1.00
1476;DHT22;730;48.870;12.542;2022-12-01T15:55:46;6.30;1.00
1476;DHT22;730;48.870;12.542;2022-12-01T15:58:20;6.20;1.00
1476;DHT22;730;48.870;12.542;2022-12-01T16:01:00;6.20;1.00
1476;DHT22;730;48.870;12.542;2022-12-01T16:03:26;6.20;1.00
1476;DHT22;730;48.870;12.542;2022-12-01T16:05:54;6.00;1.00
1476;DHT22;730;48.870;12.542;2022-12-01T16:08:22;5.90;1.00
1476;DHT22;730;48.870;12.542;2022-12-01T16:11:17;5.90;1.40
1476;DHT22;730;48.870;12.542;2022-12-01T16:13:47;5.80;1.90
1476;DHT22;730;48.870;12.542;2022-12-01T16:16:26;5.80;3.20
1476;DHT22;730;48.870;12.542;2022-12-01T16:19:41;5.80;3.40
1476;DHT22;730;48.870;12.542;2022-12-01T16:24:16;5.90;2.70
1476;DHT22;730;48.870;12.542;2022-12-01T16:26:49;5.90;2.40
1476;DHT22;730;48.870;12.542;2022-12-01T16:29:23;6.00;2.10
1476;DHT22;730;48.870;12.542;2022-12-01T16:31:51;6.00;2.10
1476;DHT22;730;48.870;12.542;2022-12-01T16:34:21;6.00;1.90
1476;DHT22;730;48.870;12.542;2022-12-01T16:36:47;6.00;2.00
1476;DHT22;730;48.870;12.542;2022-12-01T16:39:14;6.00;2.10
1476;DHT22;730;48.870;12.542;2022-12-01T16:41:40;5.90;2.60
1476;DHT22;730;48.870;12.542;2022-12-01T16:44:15;5.80;2.90
1476;DHT22;730;48.870;12.542;2022-12-01T16:46:41;5.70;3.30
1476;DHT22;730;48.870;12.542;2022-12-01T16:49:08;5.70;4.10
1476;DHT22;730;48.870;12.542;2022-12-01T16:51:35;5.70;4.20
1476;DHT22;730;48.870;12.542;2022-12-01T16:54:26;5.80;4.10
1476;DHT22;730;48.870;12.542;2022-12-01T16:56:53;5.80;3.70
1476;DHT22;730;48.870;12.542;2022-12-01T16:59:19;5.90;3.40
1476;DHT22;730;48.870;12.542;2022-12-01T17:01:45;5.90;3.20
1476;DHT22;730;48.870;12.542;2022-12-01T17:04:11;6.00;2.90
1476;DHT22;730;48.870;12.542;2022-12-01T17:06:37;6.10;2.70
1476;DHT22;730;48.870;12.542;2022-12-01T17:09:03;6.10;2.40
1476;DHT22;730;48.870;12.542;2022-12-01T17:11:29;6.10;2.10
1476;DHT22;730;48.870;12.542;2022-12-01T17:13:56;6.10;2.10
1476;DHT22;730;48.870;12.542;2022-12-01T17:16:22;6.10;2.10
1476;DHT22;730;48.870;12.542;2022-12-01T17:18:48;6.20;1.90
1476;DHT22;730;48.870;12.542;2022-12-01T17:21:14;6.20;1.70
1476;DHT22;730;48.870;12.542;2022-12-01T17:23:40;6.20;1.60
1476;DHT22;730;48.870;12.542;2022-12-01T17:26:11;6.20;1.40
1476;DHT22;730;48.870;12.542;2022-12-01T17:28:37;6.20;1.30
1476;DHT22;730;48.870;12.542;2022-12-01T17:31:04;6.20;1.10
1476;DHT22;730;48.870;12.542;2022-12-01T17:33:32;6.20;1.20
1476;DHT22;730;48.870;12.542;2022-12-01T17:36:00;6.10;1.50
1476;DHT22;730;48.870;12.542;2022-12-01T17:38:27;5.90;2.20
1476;DHT22;730;48.870;12.542;2022-12-01T17:41:01;5.90;2.50
1476;DHT22;730;48.870;12.542;2022-12-01T17:43:27;5.90;2.50
1476;DHT22;730;48.870;12.542;2022-12-01T17:45:53;5.80;2.80
1476;DHT22;730;48.870;12.542;2022-12-01T17:48:19;5.80;2.90
1476;DHT22;730;48.870;12.542;2022-12-01T17:50:46;5.90;3.10
1476;DHT22;730;48.870;12.542;2022-12-01T17:53:12;5.90;3.00
1476;DHT22;730;48.870;12.542;2022-12-01T17:55:38;5.80;3.10
1476;DHT22;730;48.870;12.542;2022-12-01T17:58:05;5.80;3.40
1476;DHT22;730;48.870;12.542;2022-12-01T18:00:31;5.90;3.30
1476;DHT22;730;48.870;12.542;2022-12-01T18:02:57;5.90;3.10
1476;DHT22;730;48.870;12.542;2022-12-01T18:05:23;6.00;2.80
1476;DHT22;730;48.870;12.542;2022-12-01T18:07:50;6.00;2.40
1476;DHT22;730;48.870;12.542;2022-12-01T18:10:17;6.10;2.20
1476;DHT22;730;48.870;12.542;2022-12-01T18:12:43;6.10;1.90
1476;DHT22;730;48.870;12.542;2022-12-01T18:15:10;6.10;1.70
1476;DHT22;730;48.870;12.542;2022-12-01T18:17:39;6.20;1.60
1476;DHT22;730;48.870;12.542;2022-12-01T18:20:06;6.20;1.40
1476;DHT22;730;48.870;12.542;2022-12-01T18:22:33;6.20;1.20
1476;DHT22;730;48.870;12.542;2022-12-01T18:24:59;6.20;1.10
1476;DHT22;730;48.870;12.542;2022-12-01T18:27:25;6.30;1.10
1476;DHT22;730;48.870;12.542;2022-12-01T18:29:51;6.30;1.00
1476;DHT22;730;48.870;12.542;2022-12-01T18:32:17;6.30;1.00
1476;DHT22;730;48.870;12.542;2022-12-01T18:34:44;6.30;1.00
1476;DHT22;730;48.870;12.542;2022-12-01T18:37:10;6.30;1.00
1476;DHT22;730;48.870;12.542;2022-12-01T18:39:37;6.30;1.00
1476;DHT22;730;48.870;12.542;2022-12-01T18:42:03;6.30;1.00
1476;DHT22;730;48.870;12.542;2022-12-01T18:44:30;6.30;1.00
1476;DHT22;730;48.870;12.542;2022-12-01T18:46:56;6.30;1.00
1476;DHT22;730;48.870;12.542;2022-12-01T18:49:23;6.30;1.00
1476;DHT22;730;48.870;12.542;2022-12-01T18:51:49;6.30;1.00
1476;DHT22;730;48.870;12.542;2022-12-01T18:54:15;6.30;1.00
1476;DHT22;730;48.870;12.542;2022-12-01T18:56:42;6.30;1.00
1476;DHT22;730;48.870;12.542;2022-12-01T18:59:09;6.30;1.10
1476;DHT22;730;48.870;12.542;2022-12-01T19:01:41;6.30;1.20
1476;DHT22;730;48.870;12.542;2022-12-01T19:04:08;6.30;1.20
1476;DHT22;730;48.870;12.542;2022-12-01T19:06:37;6.30;1.20
1476;DHT22;730;48.870;12.542;2022-12-01T19:09:04;6.30;1.20
1476;DHT22;730;48.870;12.542;2022-12-01T19:11:31;6.30;1.30
1476;DHT22;730;48.870;12.542;2022-12-01T19:13:59;6.30;1.30
1476;DHT22;730;48.870;12.542;2022-12-01T19:16:25;6.30;1.20
1476;DHT22;730;48.870;12.542;2022-12-01T19:18:51;6.30;1.10
1476;DHT22;730;48.870;12.542;2022-12-01T19:21:18;6.30;1.20